APRS [IN73CF], 0 Stunde(n), DL3EL [15:46:41, 0s].
EA1JBL 43.12.28N 005.47.42WIN73CE 2.711km 178°S13:32:03ZMMDVM DVMega 435.3000/435.3000 CC1
EA1HWA 43.12.00N 005.47.40WIN73CE 3.249km 178°S13:31:35ZMMDVM MMDVM HS Hat 433.4500/433.4500 CC1
EB1DGC 43.12.60N 005.45.59WIN73CF 3.340km 130°SE13:31:27ZMMDVM MMDVM HS Hat 433.4500/433.4500 CC1
EA1RCG 43.09.45N 005.49.78WIN73CD 8.532km 201°SSW13:31:04ZGRUPO RADIO GALENA (GRG) 433.4500/433.4500 CC1
EA1HWX 43.19.29N 005.50.96WIN73BH 11.278km 336°NNW13:30:57ZDMO - UHF 439.8250/430.4000 CC11
EA1L 43.20.38N 005.51.13WIN73BI 13.243km 338°NNW13:32:17ZWind 036°/003kn, Böen bis 010kn, Temp 16.67c, Regen 0.0mm, letzte 24h 0.0mm, seit 0h 0.0mm, Baro 1023.2h, Hum: 96%(3EA1L-13)
ea1l@ure.es V=13.9V,T=??.?C(2EA1L)
33D00 43.21.63N 005.51.13WIN73BI 15.396km 341°NNW13:02:20Z33-D-00 Protección Civil REMER / Delegación del Gobierno en Asturias
ED1ZAD 43.07.90N 005.38.52WIN73ED 16.252km 132°SE13:42:09ZED1ZAD-3 APRS Digi/Igate(3ED1ZAD-3)
EA1YR 43.22.09N 005.51.86WIN73BI 16.552km 339°NNW13:32:23ZMMDVM DVS 434.3500/434.3500 CC1
LEHU 43.22.63N 005.49.57WIN73CJ 16.688km 350°N13:30:04ZHelipuerto del HUCA: LEAS 221230Z 07003KT 020V120 9999 FEW018 BKN033 15/12 Q1025 NOSIG=
ED1ZAU 43.23.04N 005.52.75WIN73BJ 18.613km 338°NNW13:32:38ZRD625 438.5000/430.9000 CC1
EA1ABW 43.24.77N 005.47.77WIN73CJ 20.438km 359°N13:30:24ZMMDVM MMDVM HS Hat 439.8250/439.8250 CC1
LEMR 43.25.83N 005.49.60WIN73CK 22.560km 353°N13:30:04ZAerodromo de la Morgal: LEAS 221230Z 07003KT 020V120 9999 FEW018 BKN033 15/12 Q1025 NOSIG=
EA1IPU 43.26.21N 005.46.62WIN73CK 23.133km N13:30:13ZMMDVM MMDVM HS Hat 439.8000/439.8000 CC1
LEGM 43.26.15N 005.49.84WIN73CK 23.206km 352°N13:30:02ZHelipuerto de La Morgal: LEAS 221230Z 07003KT 020V120 9999 FEW018 BKN033 15/12 Q1025 NOSIG=
ED1ZAS 43.27.52N 005.40.17WIN73DL 27.370km 21°NNE13:32:38ZRD985 438.2250/430.6250 CC1
ED1ZAE 43.27.99N 005.40.54WIN73DL 27.996km 20°NNE13:41:59Z2m Voice 145.5875 -0.600 Mhz(3ED1ZAE-C)
WIDE3-3 ESAS3-3 IN73DL WWW.EA1URG.ORG(2ED1ZAE-3)
ED1ZAY 43.29.47N 005.56.54WIN73AL 31.590km 337°NNW13:32:38ZRD625 438.3000/430.7000 CC1
EB1GEM 43.30.00N 005.36.07WIN73EM 33.833km 27°NNE13:36:32ZWX3in1Plus2.0 U=13.3V,T=??.?C/??.?F(3EB1GEM-3)
EA1FFA 43.31.53N 005.40.64WIN73DM 34.232km 16°NNE13:31:46ZMMDVM MMDVM HS Hat 438.8000/438.8000 CC1
EA1DZR 43.31.48N 005.40.00WIN73EM 34.368km 17°NNE13:32:23ZMMDVM DVS 434.3500/434.3500 CC1
EA1IEJ 43.31.81N 005.40.25WIN73DM 34.875km 16°NNE13:31:26ZMMDVM MMDVM HS Hat 438.8500/438.8500 CC6
EB1TK 43.32.22N 005.42.32WIN73DM 34.943km 11°N13:40:16ZEB1TK-6>CQ,TCPIP*,qAC,T2SPAIN2:SatGate - APRS Satellite Traffic and Reporting System (ASTARS)(3EB1TK-6)
Wind 046°/005kn, Böen bis 009kn, Temp 15.56c, Regen 0.0mm, letzte 24h 4.8mm, seit 0h 4.8mm, Baro 1028.6h, Hum: 77%(2EB1TK-13)
EA1HJA 43.28.10N 005.30.45WIN73FL 35.139km 41°NE13:32:56Z IN73FL WX3IN1+ 2.0 - V=13.6V,TX TEMP=43.4C
IN73FL WX3IN1+ 2.0 - V=13.2V,TX TEMP=30.2C(2EA1HJA-2)
EB1AD 43.32.43N 005.41.30WIN73DM 35.621km 14°NNE12:50:10ZCarlos(3EB1AD-9)
EA1AHA 43.32.72N 005.54.38WIN73BN 36.365km 345°NNW13:46:24ZWind 270°/004kn, Böen bis 005kn, Temp 16.11c, Regen 0.0mm, letzte 24h 1.0mm, seit 0h 1.0mm, Baro 1026.9h, Hum: 73%(3EA1AHA-13)
LEEL 43.32.98N 005.41.71WIN73DN 36.469km 12°NNE13:30:04ZHelipuerto de El Musel: LEAS 221230Z 07003KT 020V120 9999 FEW018 BKN033 15/12 Q1025 NOSIG=
EA1FHR 43.28.72N 005.26.41WIN73GL 39.699km 46°NE13:31:22ZMMDVM MMDVM HS Hat 439.1500/439.1500 CC1
EA1HWD 43.28.96N 005.26.30WIN73GL 40.126km 45°NE13:31:04Z144.575FM Local frecuency VHF. 434.2500/434.2500 CC1
EA1JAY 43.29.33N 005.26.78WIN73GL 40.170km 44°NE13:45:05Z434.525MHz Nodo TETRA DMO(3EA1JAY-4)
EA1JAY(2EA1JAY-2)
EA1DHE 43.33.98N 005.58.57WIN73AN 40.352km 338°NNW13:32:20ZMMDVM DVS 434.3500/434.3500 CC1
LETN 43.20.05N 006.22.69WIN63TI 48.893km 284°WNW13:30:04ZAerodromo de La Curiscada (Tineo): LEAS 221230Z 07003KT 020V120 9999 FEW018 BKN033 15/12 Q1025 NOSIG=

aprs.pl 5.0.011w DL3EL © 2006-2021 [1036795]